Time;durP1;ratioP1;P1;durP2;ratioP2;P2;SDS_P1;SDS_P2;PMS_P1;PMS_P2;Temp;Humidity;BMP_temperature;BMP_pressure;BME280_temperature;BME280_humidity;BME280_pressure;Samples;Min_cycle;Max_cycle;Signal;HPM_P1;HPM_P2
2022/01/04 00:01:53;;;;;;;3.70;2.57;;;7.20;99.90;;;;;;644720;222;26620;-78
2022/01/04 00:04:20;;;;;;;6.57;2.70;;;7.30;99.90;;;;;;640542;222;26565;-77
2022/01/04 00:06:48;;;;;;;7.10;3.13;;;7.30;99.90;;;;;;647847;221;26519;-77
2022/01/04 00:09:15;;;;;;;3.87;2.63;;;7.40;99.90;;;;;;649886;221;26622;-77
2022/01/04 00:11:57;;;;;;;4.77;2.90;;;7.50;99.90;;;;;;642576;221;26778;-77
2022/01/04 00:14:10;;;;;;;4.63;2.40;;;7.60;99.90;;;;;;635813;225;26809;-77
2022/01/04 00:16:37;;;;;;;4.37;2.50;;;7.70;99.90;;;;;;640030;224;26787;-77
2022/01/04 00:19:04;;;;;;;4.73;2.57;;;7.50;99.90;;;;;;640238;221;26806;-77
2022/01/04 00:21:32;;;;;;;6.63;2.83;;;7.70;99.90;;;;;;639523;222;26571;-77
2022/01/04 00:24:00;;;;;;;2.57;2.30;;;7.70;99.90;;;;;;637994;223;26567;-77
2022/01/04 00:26:27;;;;;;;8.53;2.90;;;7.70;99.90;;;;;;641080;224;26796;-78
2022/01/04 00:28:55;;;;;;;3.73;2.10;;;7.90;99.90;;;;;;642926;221;26585;-77
2022/01/04 00:31:22;;;;;;;6.43;2.20;;;7.90;99.90;;;;;;644002;221;26816;-78
2022/01/04 00:33:50;;;;;;;3.93;2.30;;;7.60;99.90;;;;;;639736;224;26563;-78
2022/01/04 00:36:18;;;;;;;6.07;2.40;;;7.50;99.90;;;;;;637975;223;26511;-78
2022/01/04 00:38:45;;;;;;;3.37;2.37;;;7.50;99.90;;;;;;645244;222;26826;-78
2022/01/04 00:41:12;;;;;;;6.03;3.17;;;7.50;99.90;;;;;;639697;223;26824;-77
2022/01/04 00:43:39;;;;;;;4.77;2.60;;;7.60;99.90;;;;;;637715;220;26805;-77
2022/01/04 00:46:15;;;;;;;4.63;2.33;;;7.50;99.90;;;;;;640629;224;26571;-77
2022/01/04 00:51:10;;;;;;;4.33;2.60;;;7.50;99.90;;;;;;639352;221;26585;-77
2022/01/04 00:53:37;;;;;;;5.47;2.73;;;7.50;99.90;;;;;;637125;224;26870;-78
2022/01/04 00:56:04;;;;;;;4.30;2.20;;;7.50;99.90;;;;;;639489;224;26857;-77
2022/01/04 00:58:31;;;;;;;2.50;2.23;;;7.60;99.90;;;;;;640768;222;27203;-78
2022/01/04 01:00:59;;;;;;;2.30;2.10;;;7.50;99.90;;;;;;642723;222;26609;-78
2022/01/04 01:03:26;;;;;;;2.43;2.00;;;7.50;99.90;;;;;;637704;222;27250;-77
2022/01/04 01:05:54;;;;;;;4.97;2.33;;;7.60;99.90;;;;;;641603;222;26587;-78
2022/01/04 01:08:22;;;;;;;5.23;2.43;;;7.50;99.90;;;;;;649410;221;26522;-77
2022/01/04 01:10:50;;;;;;;5.00;2.10;;;7.50;99.90;;;;;;637561;221;26922;-78
2022/01/04 01:13:16;;;;;;;5.47;2.27;;;7.30;99.90;;;;;;645827;221;26500;-77
2022/01/04 01:15:45;;;;;;;5.47;2.30;;;7.50;99.90;;;;;;638519;224;26814;-83
2022/01/04 01:18:10;;;;;;;3.57;2.30;;;7.50;99.90;;;;;;638376;221;26575;-84
2022/01/04 01:20:38;;;;;;;5.57;2.37;;;7.60;99.90;;;;;;637779;224;26582;-84
2022/01/04 01:23:05;;;;;;;2.83;2.03;;;7.70;99.90;;;;;;637061;224;26602;-83
2022/01/04 01:25:32;;;;;;;5.27;2.10;;;7.70;99.90;;;;;;640088;224;26580;-84
2022/01/04 01:27:59;;;;;;;4.10;2.13;;;7.60;99.90;;;;;;640416;224;26793;-83
2022/01/04 01:30:28;;;;;;;2.33;2.00;;;7.50;99.90;;;;;;640400;224;26579;-84
2022/01/04 01:32:54;;;;;;;2.30;1.90;;;7.50;99.90;;;;;;640378;224;26563;-83
2022/01/04 01:35:22;;;;;;;3.40;2.07;;;7.70;99.90;;;;;;641411;222;26576;-85
2022/01/04 01:37:49;;;;;;;2.50;2.30;;;7.70;99.90;;;;;;640452;224;26568;-84
2022/01/04 01:40:16;;;;;;;3.63;2.00;;;7.60;99.90;;;;;;638104;223;26587;-84
2022/01/04 01:42:43;;;;;;;2.63;1.90;;;7.50;99.90;;;;;;637997;224;27271;-85
2022/01/04 01:45:11;;;;;;;2.83;2.00;;;7.50;99.90;;;;;;641423;222;26502;-84
2022/01/04 01:47:39;;;;;;;2.57;1.80;;;7.50;99.90;;;;;;649945;221;26511;-84
2022/01/04 01:50:06;;;;;;;2.97;2.00;;;7.50;99.90;;;;;;650410;221;26510;-84
2022/01/04 01:52:33;;;;;;;3.27;2.03;;;7.40;99.90;;;;;;650534;221;26479;-83
2022/01/04 01:55:00;;;;;;;3.40;1.80;;;7.40;99.90;;;;;;649365;221;26809;-84
2022/01/04 01:57:27;;;;;;;3.10;2.10;;;7.40;99.90;;;;;;641406;224;26552;-84
2022/01/04 01:59:55;;;;;;;3.17;1.90;;;7.50;99.90;;;;;;644549;222;26584;-84
2022/01/04 02:02:22;;;;;;;1.70;1.60;;;7.50;99.90;;;;;;646092;222;26470;-84
2022/01/04 02:04:49;;;;;;;2.83;2.00;;;7.50;99.90;;;;;;639766;224;26566;-84
2022/01/04 02:07:16;;;;;;;3.80;2.37;;;7.50;99.90;;;;;;641851;221;26872;-84
2022/01/04 02:09:51;;;;;;;3.07;1.87;;;7.50;99.90;;;;;;643237;222;26599;-84
2022/01/04 02:12:11;;;;;;;2.03;1.80;;;7.50;99.90;;;;;;638442;222;26781;-83
2022/01/04 02:14:39;;;;;;;4.10;2.07;;;7.40;99.90;;;;;;637253;225;26564;-84
2022/01/04 02:17:07;;;;;;;5.23;2.30;;;7.40;99.90;;;;;;637586;224;26570;-84
2022/01/04 02:19:35;;;;;;;2.63;1.70;;;7.30;99.90;;;;;;640470;224;27201;-84
2022/01/04 02:22:02;;;;;;;2.80;2.00;;;7.40;99.90;;;;;;638555;224;26567;-84
2022/01/04 02:24:31;;;;;;;3.77;1.93;;;7.40;99.90;;;;;;637967;224;26778;-84
2022/01/04 02:26:56;;;;;;;3.90;2.00;;;7.40;99.90;;;;;;640363;224;26600;-84
2022/01/04 02:29:23;;;;;;;2.20;2.10;;;7.50;99.90;;;;;;637458;224;26589;-84
2022/01/04 02:31:51;;;;;;;2.67;1.77;;;7.50;99.90;;;;;;640415;222;26577;-84
2022/01/04 02:34:19;;;;;;;2.60;1.90;;;7.50;99.90;;;;;;647219;222;26580;-83
2022/01/04 02:36:46;;;;;;;3.10;1.87;;;7.50;99.90;;;;;;630042;226;26535;-83
2022/01/04 02:39:13;;;;;;;2.57;1.80;;;7.50;99.90;;;;;;637121;225;26853;-84
2022/01/04 02:41:40;;;;;;;2.23;2.10;;;7.60;99.90;;;;;;639411;224;26557;-83
2022/01/04 02:44:07;;;;;;;2.20;2.00;;;7.60;99.90;;;;;;642082;222;26525;-83
2022/01/04 02:46:35;;;;;;;2.23;2.00;;;7.60;99.90;;;;;;647853;220;26611;-84
2022/01/04 02:49:03;;;;;;;2.30;2.00;;;7.60;99.90;;;;;;644570;221;26543;-83
2022/01/04 02:51:30;;;;;;;3.97;2.23;;;7.50;99.90;;;;;;641732;224;26555;-83
2022/01/04 02:53:58;;;;;;;2.93;1.80;;;7.70;99.90;;;;;;641242;224;27327;-83
2022/01/04 02:56:25;;;;;;;2.17;1.80;;;7.70;99.90;;;;;;640619;223;26569;-84
2022/01/04 02:58:53;;;;;;;2.60;1.70;;;7.60;99.90;;;;;;638579;223;26567;-84
2022/01/04 03:01:21;;;;;;;3.57;2.00;;;7.60;99.90;;;;;;637579;225;26520;-84
2022/01/04 03:03:48;;;;;;;5.07;2.10;;;7.50;99.90;;;;;;637760;225;26769;-84
2022/01/04 03:06:15;;;;;;;3.90;2.10;;;7.50;99.90;;;;;;637433;225;26835;-84
2022/01/04 03:08:43;;;;;;;2.43;2.23;;;7.40;99.90;;;;;;637532;224;26563;-84
2022/01/04 03:11:10;;;;;;;2.77;2.10;;;7.50;99.90;;;;;;637424;225;26579;-84
2022/01/04 03:13:37;;;;;;;1.90;1.63;;;7.40;99.90;;;;;;638708;224;26563;-84
2022/01/04 03:16:04;;;;;;;1.93;1.70;;;7.50;99.90;;;;;;639154;223;26563;-84
2022/01/04 03:18:31;;;;;;;2.67;1.80;;;7.50;99.90;;;;;;637482;224;26583;-83
2022/01/04 03:20:59;;;;;;;1.80;1.70;;;7.60;99.90;;;;;;642561;222;26581;-84
2022/01/04 03:23:27;;;;;;;2.13;1.80;;;7.60;99.90;;;;;;647265;222;26587;-84
2022/01/04 03:25:54;;;;;;;3.03;2.20;;;7.60;99.90;;;;;;645760;222;26578;-84
2022/01/04 03:28:23;;;;;;;3.00;1.73;;;7.60;99.90;;;;;;639332;224;26811;-84
2022/01/04 03:30:48;;;;;;;2.93;1.97;;;7.60;99.90;;;;;;638204;224;26633;-84
2022/01/04 03:33:15;;;;;;;3.03;1.90;;;7.70;99.90;;;;;;640526;224;26488;-84
2022/01/04 03:35:43;;;;;;;2.17;1.90;;;7.70;99.90;;;;;;640483;224;26560;-85
2022/01/04 03:38:10;;;;;;;2.30;2.10;;;7.70;99.90;;;;;;640471;224;26541;-84
2022/01/04 03:40:38;;;;;;;2.10;2.00;;;7.70;99.90;;;;;;640427;222;26591;-84
2022/01/04 03:43:05;;;;;;;2.00;1.90;;;7.70;99.90;;;;;;640475;224;26810;-83
2022/01/04 03:45:32;;;;;;;3.67;2.10;;;7.60;99.90;;;;;;640682;224;26504;-84
2022/01/04 03:47:59;;;;;;;3.07;1.83;;;7.50;99.90;;;;;;640725;224;26537;-85
2022/01/04 03:50:27;;;;;;;2.73;2.00;;;7.60;99.90;;;;;;640617;224;26556;-85
2022/01/04 03:52:54;;;;;;;1.93;1.70;;;7.50;99.90;;;;;;640706;224;26536;-84
2022/01/04 03:55:22;;;;;;;1.80;1.70;;;7.50;99.90;;;;;;640656;224;26543;-84
2022/01/04 03:57:49;;;;;;;2.23;1.80;;;7.60;99.90;;;;;;640966;222;26815;-84
2022/01/04 04:00:16;;;;;;;2.70;2.20;;;7.70;99.90;;;;;;642132;224;26568;-84
2022/01/04 04:02:43;;;;;;;1.90;1.80;;;7.70;99.90;;;;;;638367;224;26532;-84
2022/01/04 04:05:12;;;;;;;2.20;1.97;;;7.70;99.90;;;;;;638250;224;26566;-83
2022/01/04 04:07:38;;;;;;;2.50;2.27;;;7.70;99.90;;;;;;647752;217;26574;-84
2022/01/04 04:10:06;;;;;;;2.87;2.57;;;7.80;99.90;;;;;;638511;222;26535;-84
2022/01/04 04:12:34;;;;;;;2.53;2.33;;;7.80;99.90;;;;;;637720;224;26508;-84
2022/01/04 04:15:04;;;;;;;2.83;2.60;;;7.80;99.90;;;;;;637663;225;26504;-84
2022/01/04 04:17:28;;;;;;;2.53;2.33;;;7.80;99.90;;;;;;637323;224;26598;-84
2022/01/04 04:19:55;;;;;;;2.90;2.10;;;7.70;99.90;;;;;;637302;221;27509;-83
2022/01/04 04:22:23;;;;;;;2.50;1.80;;;7.90;99.90;;;;;;638094;224;26568;-85
2022/01/04 04:24:50;;;;;;;2.20;1.93;;;7.90;99.90;;;;;;637449;224;26572;-85
2022/01/04 04:27:18;;;;;;;5.00;2.20;;;7.90;99.90;;;;;;637529;224;26584;-84
2022/01/04 04:29:45;;;;;;;3.60;1.90;;;7.90;99.90;;;;;;647152;222;26593;-84
2022/01/04 04:32:13;;;;;;;2.10;2.00;;;8.00;99.90;;;;;;637450;224;26574;-84
2022/01/04 04:34:40;;;;;;;2.73;2.53;;;8.00;99.90;;;;;;644168;222;26574;-84
2022/01/04 04:37:07;;;;;;;2.23;2.10;;;7.90;99.90;;;;;;637923;224;26890;-84
2022/01/04 04:39:34;;;;;;;2.20;2.00;;;7.80;99.90;;;;;;638717;224;26574;-84
2022/01/04 04:42:01;;;;;;;3.40;2.40;;;7.70;99.90;;;;;;643343;222;26553;-83
2022/01/04 04:44:29;;;;;;;4.00;2.30;;;7.80;99.90;;;;;;647214;222;26591;-83
2022/01/04 04:46:56;;;;;;;2.70;2.40;;;7.80;99.90;;;;;;637154;222;26580;-84
2022/01/04 04:49:23;;;;;;;3.23;2.23;;;7.80;99.90;;;;;;637099;221;26815;-84
2022/01/04 04:51:50;;;;;;;2.90;2.40;;;7.80;99.90;;;;;;637070;224;26582;-84
2022/01/04 04:54:17;;;;;;;3.87;2.60;;;7.70;99.90;;;;;;637022;219;26970;-83
2022/01/04 04:56:45;;;;;;;2.60;2.40;;;7.40;99.90;;;;;;646828;222;26528;-84
2022/01/04 04:59:13;;;;;;;2.73;2.40;;;7.50;99.90;;;;;;642478;222;26548;-83
2022/01/04 05:01:40;;;;;;;3.70;2.83;;;7.50;99.90;;;;;;644668;221;26882;-84
2022/01/04 05:04:09;;;;;;;2.60;2.40;;;7.50;99.90;;;;;;638260;221;26593;-84
2022/01/04 05:06:36;;;;;;;3.73;2.27;;;7.50;99.90;;;;;;637459;224;26545;-84
2022/01/04 05:09:03;;;;;;;4.37;2.47;;;7.50;99.90;;;;;;640617;222;26800;-84
2022/01/04 05:11:31;;;;;;;3.90;2.90;;;7.40;99.90;;;;;;649208;220;26560;-84
2022/01/04 05:13:57;;;;;;;2.73;2.50;;;7.40;99.90;;;;;;648535;222;26744;-83
2022/01/04 05:16:25;;;;;;;2.80;2.47;;;7.40;99.90;;;;;;648270;222;26570;-82
2022/01/04 05:18:54;;;;;;;2.80;2.60;;;7.40;99.90;;;;;;646342;222;26581;-83
2022/01/04 05:21:21;;;;;;;3.80;2.93;;;7.30;99.90;;;;;;637861;225;26740;-85
2022/01/04 05:23:50;;;;;;;2.40;2.20;;;7.70;99.90;;;;;;637977;225;26513;-88
2022/01/04 05:26:15;;;;;;;5.13;2.67;;;7.70;99.90;;;;;;638666;224;26766;-83
2022/01/04 05:28:45;;;;;;;3.70;2.67;;;7.70;99.90;;;;;;641067;223;26777;-85
2022/01/04 05:31:11;;;;;;;3.60;2.97;;;7.70;99.90;;;;;;640813;224;26600;-87
2022/01/04 05:33:38;;;;;;;2.93;2.47;;;7.70;99.90;;;;;;639733;224;26572;-86
2022/01/04 05:36:05;;;;;;;4.50;2.93;;;7.70;99.90;;;;;;637534;225;26565;-88
2022/01/04 05:38:32;;;;;;;3.37;2.40;;;7.60;99.90;;;;;;640096;222;26803;-81
2022/01/04 05:41:00;;;;;;;3.77;2.80;;;7.70;99.90;;;;;;638250;219;26597;-84
2022/01/04 05:43:28;;;;;;;4.63;3.03;;;7.80;99.90;;;;;;640785;223;26596;-83
2022/01/04 05:45:56;;;;;;;3.57;2.93;;;7.80;99.90;;;;;;637383;224;26584;-84
2022/01/04 05:48:23;;;;;;;4.17;2.53;;;7.70;99.90;;;;;;639623;219;26557;-84
2022/01/04 05:50:50;;;;;;;4.70;2.80;;;7.60;99.90;;;;;;638569;224;26858;-85
2022/01/04 05:53:17;;;;;;;4.00;2.77;;;7.60;99.90;;;;;;637165;219;26597;-84
2022/01/04 05:55:44;;;;;;;2.83;2.50;;;7.80;99.90;;;;;;637462;224;26577;-84
2022/01/04 05:58:12;;;;;;;4.17;2.97;;;7.90;99.90;;;;;;641739;222;26555;-83
2022/01/04 06:00:39;;;;;;;4.93;2.93;;;7.90;99.90;;;;;;643294;221;26533;-84
2022/01/04 06:03:07;;;;;;;5.07;3.30;;;7.90;99.90;;;;;;637222;224;26560;-83
2022/01/04 06:05:34;;;;;;;4.00;3.10;;;7.90;99.90;;;;;;637186;224;26826;-83
2022/01/04 06:08:01;;;;;;;3.23;2.97;;;7.90;99.90;;;;;;637207;225;26568;-84
2022/01/04 06:10:36;;;;;;;3.27;3.07;;;8.20;99.90;;;;;;639788;221;26584;-86
2022/01/04 06:15:40;;;;;;;5.43;3.37;;;8.30;99.90;;;;;;617156;232;26577;-83
2022/01/04 06:18:06;;;;;;;4.33;3.30;;;8.20;99.90;;;;;;621417;231;26616;-83
2022/01/04 06:20:33;;;;;;;5.93;3.20;;;8.50;99.90;;;;;;633125;227;26593;-83
2022/01/04 06:23:01;;;;;;;5.87;3.30;;;8.50;99.90;;;;;;634784;225;26848;-83
2022/01/04 06:25:28;;;;;;;3.50;3.20;;;8.40;99.90;;;;;;634243;226;26615;-83
2022/01/04 06:27:56;;;;;;;3.73;3.03;;;8.20;99.90;;;;;;633920;227;27269;-84
2022/01/04 06:30:22;;;;;;;6.00;3.57;;;8.00;99.90;;;;;;633756;227;26630;-83
2022/01/04 06:32:49;;;;;;;4.40;3.23;;;8.20;99.90;;;;;;633622;227;26537;-83
2022/01/04 06:35:17;;;;;;;4.80;3.17;;;8.30;99.90;;;;;;633629;227;26533;-84
2022/01/04 06:37:46;;;;;;;8.30;3.70;;;8.30;99.90;;;;;;633662;227;27265;-83
2022/01/04 06:40:12;;;;;;;5.17;3.83;;;8.10;99.90;;;;;;633642;227;26568;-83
2022/01/04 06:42:39;;;;;;;6.13;4.97;;;8.10;99.90;;;;;;633304;227;26621;-83
2022/01/04 06:45:07;;;;;;;7.43;4.80;;;8.00;99.90;;;;;;633345;227;26526;-84
2022/01/04 06:47:34;;;;;;;5.40;4.90;;;8.00;99.90;;;;;;633323;227;26806;-83
2022/01/04 06:50:01;;;;;;;6.53;5.53;;;7.80;99.90;;;;;;633302;227;26563;-84
2022/01/04 06:52:28;;;;;;;7.23;4.97;;;7.90;99.90;;;;;;633272;227;26854;-84
2022/01/04 06:54:56;;;;;;;8.00;5.87;;;8.00;99.90;;;;;;627557;227;26543;-82
2022/01/04 06:57:23;;;;;;;7.67;5.57;;;8.10;99.90;;;;;;614955;233;26613;-84
2022/01/04 06:59:51;;;;;;;9.07;6.30;;;8.10;99.90;;;;;;627393;229;26565;-84
2022/01/04 07:02:18;;;;;;;8.50;6.37;;;8.10;99.90;;;;;;619501;232;26569;-84
2022/01/04 07:04:45;;;;;;;7.87;6.33;;;8.30;99.90;;;;;;649479;221;26514;-82
2022/01/04 07:07:12;;;;;;;9.60;6.07;;;8.40;99.90;;;;;;648797;221;26783;-84
2022/01/04 07:09:41;;;;;;;8.70;6.23;;;8.40;99.90;;;;;;637312;221;26587;-84
2022/01/04 07:12:08;;;;;;;10.17;6.63;;;8.10;99.90;;;;;;640276;224;26626;-83
2022/01/04 07:14:36;;;;;;;8.73;6.57;;;8.10;99.90;;;;;;638061;224;26600;-83
2022/01/04 07:17:03;;;;;;;8.00;6.10;;;8.10;99.90;;;;;;646380;221;26808;-84
2022/01/04 07:19:30;;;;;;;10.20;6.53;;;8.20;99.90;;;;;;650020;221;26562;-75
2022/01/04 07:21:57;;;;;;;6.70;6.00;;;8.30;99.90;;;;;;645357;221;26534;-75
2022/01/04 07:24:25;;;;;;;8.60;6.50;;;8.40;99.90;;;;;;645589;222;26890;-75
2022/01/04 07:26:52;;;;;;;8.40;6.33;;;8.40;99.90;;;;;;639056;221;26603;-81
2022/01/04 07:29:19;;;;;;;10.13;7.13;;;8.50;99.90;;;;;;636864;224;26935;-76
2022/01/04 07:31:47;;;;;;;10.00;6.73;;;8.80;99.90;;;;;;638397;221;26596;-76
2022/01/04 07:34:15;;;;;;;8.10;6.57;;;9.00;99.90;;;;;;638760;223;26534;-76
2022/01/04 07:36:42;;;;;;;11.07;6.13;;;9.00;99.90;;;;;;639300;224;26620;-77
2022/01/04 07:39:09;;;;;;;9.40;6.40;;;8.90;99.90;;;;;;640021;220;26770;-77
2022/01/04 07:41:36;;;;;;;8.53;6.47;;;8.80;99.90;;;;;;640831;222;26847;-77
2022/01/04 07:44:04;;;;;;;9.43;5.93;;;8.80;99.90;;;;;;639864;223;26552;-76
2022/01/04 07:46:32;;;;;;;7.13;5.67;;;9.00;99.90;;;;;;638053;224;26587;-77
2022/01/04 07:49:00;;;;;;;7.17;5.33;;;8.80;99.90;;;;;;644460;222;26599;-76
2022/01/04 07:51:28;;;;;;;7.97;5.50;;;8.80;99.90;;;;;;638715;224;26801;-76
2022/01/04 07:53:54;;;;;;;5.83;5.10;;;9.00;99.90;;;;;;643990;221;26579;-77
2022/01/04 07:56:22;;;;;;;6.40;4.80;;;9.20;99.90;;;;;;639351;224;26841;-76
2022/01/04 07:58:49;;;;;;;5.57;5.00;;;9.10;99.90;;;;;;639633;223;26577;-77
2022/01/04 08:01:17;;;;;;;6.43;4.50;;;9.10;99.90;;;;;;645957;219;26590;-79
2022/01/04 08:03:44;;;;;;;4.63;3.83;;;9.00;99.90;;;;;;646785;222;26563;-84
2022/01/04 08:06:11;;;;;;;6.53;4.87;;;9.00;99.90;;;;;;637201;224;26548;-83
2022/01/04 08:08:39;;;;;;;5.33;4.80;;;9.00;99.90;;;;;;637126;224;26790;-86
2022/01/04 08:11:08;;;;;;;5.77;4.43;;;8.90;99.90;;;;;;638683;221;26600;-76
2022/01/04 08:13:35;;;;;;;5.73;4.37;;;8.90;99.90;;;;;;638480;222;26580;-75
2022/01/04 08:16:02;;;;;;;5.57;4.37;;;8.90;99.90;;;;;;647190;221;26602;-76
2022/01/04 08:18:29;;;;;;;7.77;5.33;;;8.90;99.90;;;;;;646928;222;26570;-76
2022/01/04 08:20:57;;;;;;;5.90;4.53;;;9.00;99.90;;;;;;643319;221;26592;-76
2022/01/04 08:23:23;;;;;;;5.47;4.93;;;9.20;99.90;;;;;;638101;224;26587;-76
2022/01/04 08:25:51;;;;;;;6.90;4.40;;;9.10;99.90;;;;;;640308;224;26801;-75
2022/01/04 08:28:18;;;;;;;6.10;4.07;;;9.10;99.90;;;;;;645339;222;26632;-75
2022/01/04 08:30:45;;;;;;;3.67;3.37;;;9.30;99.90;;;;;;637580;221;26629;-76
2022/01/04 08:33:13;;;;;;;4.83;4.13;;;9.20;99.90;;;;;;637001;224;26570;-76
2022/01/04 08:35:40;;;;;;;4.73;3.57;;;9.20;99.90;;;;;;641855;222;26562;-76
2022/01/04 08:38:08;;;;;;;3.97;3.67;;;9.30;99.90;;;;;;640246;222;26608;-76
2022/01/04 08:40:36;;;;;;;4.67;4.20;;;9.30;99.90;;;;;;640538;222;26591;-76
2022/01/04 08:43:03;;;;;;;3.90;3.60;;;9.30;99.90;;;;;;644705;222;26602;-76
2022/01/04 08:45:30;;;;;;;6.17;3.73;;;9.20;99.90;;;;;;638383;223;26782;-76
2022/01/04 08:47:57;;;;;;;4.30;3.43;;;9.30;99.90;;;;;;641691;223;26806;-75
2022/01/04 08:50:24;;;;;;;4.07;3.30;;;9.50;99.90;;;;;;638531;223;26604;-75
2022/01/04 08:52:54;;;;;;;3.90;3.50;;;9.40;99.90;;;;;;638121;224;26542;-76
2022/01/04 08:55:19;;;;;;;3.80;3.50;;;9.60;99.90;;;;;;639558;224;26567;-75
2022/01/04 08:57:47;;;;;;;4.10;3.80;;;9.60;99.90;;;;;;639370;219;26577;-76
2022/01/04 09:00:14;;;;;;;5.17;4.20;;;9.70;99.90;;;;;;638547;223;26595;-77
2022/01/04 09:02:43;;;;;;;4.60;4.17;;;9.80;99.90;;;;;;640349;224;26784;-77
2022/01/04 09:05:09;;;;;;;4.83;4.10;;;9.80;99.90;;;;;;637289;224;26595;-76
2022/01/04 09:07:37;;;;;;;4.20;3.80;;;10.00;99.90;;;;;;638903;224;26633;-76
2022/01/04 09:10:05;;;;;;;4.20;3.30;;;10.00;99.90;;;;;;640718;222;26588;-77
2022/01/04 09:15:28;;;;;;;3.20;2.90;;;9.80;99.90;;;;;;638154;224;26573;-76
2022/01/04 09:20:07;;;;;;;3.57;2.90;;;9.90;99.90;;;;;;638007;224;26618;-76
2022/01/04 09:22:34;;;;;;;3.43;2.57;;;9.90;99.90;;;;;;640378;224;26529;-76
2022/01/04 09:25:01;;;;;;;3.37;3.07;;;10.10;99.90;;;;;;640374;224;26793;-76
2022/01/04 09:27:29;;;;;;;3.30;3.00;;;10.20;99.90;;;;;;639660;224;26552;-76
2022/01/04 09:30:02;;;;;;;3.63;3.07;;;10.10;99.90;;;;;;640420;222;26568;-76
2022/01/04 09:32:25;;;;;;;3.33;2.80;;;9.80;99.90;;;;;;640028;224;26515;-78
2022/01/04 09:34:53;;;;;;;3.30;3.00;;;9.80;99.90;;;;;;647030;222;26826;-77
2022/01/04 09:37:20;;;;;;;3.83;2.97;;;9.80;99.90;;;;;;647159;222;26806;-76
2022/01/04 09:39:48;;;;;;;3.27;2.97;;;9.60;99.90;;;;;;647100;222;26619;-77
2022/01/04 09:42:16;;;;;;;3.37;2.80;;;9.60;99.90;;;;;;647134;222;26620;-77
2022/01/04 09:44:43;;;;;;;3.70;2.80;;;9.60;99.90;;;;;;637787;222;26824;-76
2022/01/04 09:47:10;;;;;;;7.60;3.73;;;9.70;99.90;;;;;;637069;225;26808;-76
2022/01/04 09:49:38;;;;;;;3.07;2.80;;;9.80;99.90;;;;;;637076;224;26896;-76
2022/01/04 09:52:06;;;;;;;4.37;2.90;;;10.00;99.90;;;;;;637193;224;26589;-77
2022/01/04 09:54:32;;;;;;;5.23;4.03;;;10.10;99.90;;;;;;637176;224;26828;-76
2022/01/04 09:57:00;;;;;;;6.47;3.57;;;10.10;99.90;;;;;;638473;223;26583;-76
2022/01/04 09:59:27;;;;;;;5.30;3.10;;;9.80;99.90;;;;;;638510;224;26840;-77
2022/01/04 10:02:01;;;;;;;4.43;3.30;;;10.00;99.90;;;;;;637928;224;26597;-76
2022/01/04 10:04:24;;;;;;;6.33;3.50;;;10.30;99.90;;;;;;637241;225;26867;-77
2022/01/04 10:06:56;;;;;;;4.93;3.17;;;10.20;99.90;;;;;;640516;224;26600;-76
2022/01/04 10:09:23;;;;;;;4.20;3.30;;;10.20;99.90;;;;;;640785;222;26927;-76
2022/01/04 10:11:52;;;;;;;4.90;3.20;;;10.10;99.90;;;;;;639300;222;26550;-77
2022/01/04 10:14:24;;;;;;;4.80;3.07;;;9.90;99.90;;;;;;646227;222;26818;-76
2022/01/04 10:17:01;;;;;;;3.40;3.10;;;9.70;99.90;;;;;;647229;222;26568;-76
2022/01/04 10:19:30;;;;;;;3.23;2.80;;;9.70;99.90;;;;;;647225;222;26625;-76
2022/01/04 10:22:09;;;;;;;4.60;4.20;;;9.80;99.90;;;;;;647310;222;26586;-76
2022/01/04 10:24:37;;;;;;;4.77;4.23;;;9.90;99.90;;;;;;647474;222;26767;-77
2022/01/04 10:27:24;;;;;;;5.17;4.10;;;9.90;99.90;;;;;;648023;221;26609;-85
2022/01/04 10:30:20;;;;;;;5.40;4.17;;;9.80;99.90;;;;;;650349;221;26826;-84
2022/01/04 10:32:53;;;;;;;4.90;4.37;;;10.10;99.90;;;;;;648199;221;26519;-84
2022/01/04 10:35:24;;;;;;;4.23;3.83;;;10.00;99.90;;;;;;650052;221;26523;-84
2022/01/04 10:37:51;;;;;;;5.37;4.37;;;9.90;99.90;;;;;;649907;221;26542;-82
2022/01/04 10:40:18;;;;;;;6.80;4.77;;;9.60;99.90;;;;;;650469;221;26518;-83
2022/01/04 10:42:46;;;;;;;5.27;4.77;;;9.60;99.90;;;;;;638448;221;26552;-86
2022/01/04 10:45:19;;;;;;;9.60;6.63;;;9.90;99.90;;;;;;637720;224;26518;-78
2022/01/04 10:47:47;;;;;;;8.73;5.73;;;9.90;99.90;;;;;;637080;224;26560;-77
2022/01/04 10:50:14;;;;;;;7.60;5.57;;;9.90;99.90;;;;;;637026;224;26806;-78
2022/01/04 10:52:42;;;;;;;5.83;4.57;;;9.80;99.90;;;;;;638852;222;26549;-81
2022/01/04 10:55:12;;;;;;;6.77;4.47;;;9.80;99.90;;;;;;647117;222;26586;-77
2022/01/04 10:57:40;;;;;;;6.23;4.20;;;9.50;99.90;;;;;;646918;222;26558;-77
2022/01/04 11:00:13;;;;;;;5.40;4.23;;;9.40;99.90;;;;;;647065;222;26643;-77
2022/01/04 11:02:41;;;;;;;4.87;4.40;;;9.60;99.90;;;;;;638402;222;26586;-77
2022/01/04 11:05:13;;;;;;;4.47;3.83;;;9.60;99.90;;;;;;640021;222;26513;-77
2022/01/04 11:07:52;;;;;;;7.03;5.10;;;9.60;99.90;;;;;;642805;220;26580;-78
2022/01/04 11:10:20;;;;;;;5.43;4.77;;;9.60;99.90;;;;;;648799;221;26869;-77
2022/01/04 11:12:47;;;;;;;3.77;3.47;;;9.40;99.90;;;;;;648507;221;26495;-79
2022/01/04 11:15:14;;;;;;;5.33;4.57;;;9.20;99.90;;;;;;648252;221;26811;-78
2022/01/04 11:17:42;;;;;;;5.03;4.63;;;9.00;99.90;;;;;;648073;221;26542;-78
2022/01/04 11:20:10;;;;;;;5.90;5.27;;;9.20;99.90;;;;;;647971;222;26545;-77
2022/01/04 11:22:40;;;;;;;7.13;6.17;;;9.20;99.90;;;;;;647960;222;26518;-77
2022/01/04 11:25:05;;;;;;;7.70;6.17;;;9.10;99.90;;;;;;647742;222;26517;-77
2022/01/04 11:27:33;;;;;;;4.67;3.87;;;9.30;99.90;;;;;;647389;222;26806;-81
2022/01/04 11:30:01;;;;;;;5.47;4.07;;;9.30;99.90;;;;;;647231;222;26619;-82
2022/01/04 11:32:29;;;;;;;3.33;3.10;;;9.40;99.90;;;;;;647237;222;26576;-82
2022/01/04 11:35:01;;;;;;;5.67;3.50;;;9.40;99.90;;;;;;647435;222;26858;-83
2022/01/04 11:37:29;;;;;;;5.63;3.03;;;9.60;99.90;;;;;;647487;222;26565;-83
2022/01/04 11:39:57;;;;;;;5.93;3.73;;;9.60;99.90;;;;;;647525;222;26899;-82
2022/01/04 11:42:38;;;;;;;3.70;3.37;;;9.50;99.90;;;;;;647494;217;26579;-82
2022/01/04 11:45:06;;;;;;;4.40;2.90;;;9.40;99.90;;;;;;647068;222;26569;-82
2022/01/04 11:47:32;;;;;;;3.80;3.43;;;9.10;99.90;;;;;;647183;222;27040;-82
2022/01/04 11:50:06;;;;;;;3.67;3.40;;;9.10;99.90;;;;;;647056;222;26596;-82
2022/01/04 11:52:49;;;;;;;3.50;3.20;;;9.10;99.90;;;;;;647064;222;26837;-82
2022/01/04 11:55:17;;;;;;;4.10;3.00;;;9.30;99.90;;;;;;647119;218;26572;-82
2022/01/04 11:57:45;;;;;;;3.20;2.90;;;9.50;99.90;;;;;;647084;222;26561;-82
2022/01/04 12:00:14;;;;;;;3.57;3.27;;;9.30;99.90;;;;;;647027;222;26581;-82
2022/01/04 12:02:43;;;;;;;3.77;3.47;;;9.30;99.90;;;;;;645911;222;26570;-82
2022/01/04 12:05:14;;;;;;;3.77;3.23;;;9.40;99.90;;;;;;646826;222;26886;-82
2022/01/04 12:07:44;;;;;;;5.03;4.10;;;9.50;99.90;;;;;;646608;222;26618;-81
2022/01/04 12:10:33;;;;;;;4.17;3.67;;;9.70;99.90;;;;;;646822;222;26636;-83
2022/01/04 12:13:04;;;;;;;6.50;4.07;;;9.70;99.90;;;;;;648841;221;26549;-82
2022/01/04 12:15:49;;;;;;;7.27;5.20;;;9.90;99.90;;;;;;649724;221;26772;-82
2022/01/04 12:18:38;;;;;;;4.20;3.73;;;9.60;99.90;;;;;;649916;221;26563;-83
2022/01/04 12:21:20;;;;;;;5.77;3.90;;;9.70;99.90;;;;;;650012;220;26602;-83
2022/01/04 12:23:45;;;;;;;5.00;3.90;;;9.90;99.90;;;;;;650989;221;26779;-83
2022/01/04 12:26:21;;;;;;;4.47;4.07;;;10.00;99.90;;;;;;650906;221;26786;-83
2022/01/04 12:29:10;;;;;;;4.47;4.03;;;10.10;99.90;;;;;;650668;221;26880;-83
2022/01/04 12:31:46;;;;;;;4.37;3.80;;;10.10;99.90;;;;;;648896;221;26588;-83
2022/01/04 12:34:25;;;;;;;6.87;3.93;;;10.10;99.90;;;;;;650633;221;26794;-83
2022/01/04 12:36:52;;;;;;;5.43;3.73;;;9.90;99.90;;;;;;650352;221;26560;-82
2022/01/04 12:39:20;;;;;;;6.97;4.97;;;10.10;99.90;;;;;;650191;221;26816;-83
2022/01/04 12:41:50;;;;;;;6.33;4.07;;;10.00;99.90;;;;;;650078;221;26606;-82
2022/01/04 12:44:24;;;;;;;4.17;3.73;;;10.00;99.90;;;;;;650058;221;26578;-82
2022/01/04 12:46:52;;;;;;;3.77;3.47;;;9.80;99.90;;;;;;650111;221;26899;-84
2022/01/04 12:49:19;;;;;;;3.83;3.17;;;9.50;99.90;;;;;;650289;221;26598;-85
2022/01/04 12:51:47;;;;;;;4.60;3.60;;;9.40;99.90;;;;;;650401;221;26850;-83
2022/01/04 12:54:15;;;;;;;4.80;3.50;;;9.40;99.90;;;;;;650115;221;26876;-83
2022/01/04 12:56:43;;;;;;;4.33;3.57;;;9.40;99.90;;;;;;649899;216;26518;-83
2022/01/04 12:59:33;;;;;;;4.20;3.90;;;9.50;99.90;;;;;;649587;216;26527;-82
2022/01/04 13:01:59;;;;;;;4.50;4.10;;;9.50;99.90;;;;;;649853;221;26522;-83
2022/01/04 13:04:28;;;;;;;7.30;4.10;;;9.90;99.90;;;;;;649881;221;26522;-82
2022/01/04 13:06:55;;;;;;;3.70;3.40;;;9.90;99.90;;;;;;649840;221;26567;-82
2022/01/04 13:09:23;;;;;;;3.87;3.00;;;9.60;99.90;;;;;;649999;221;26613;-83
2022/01/04 13:11:54;;;;;;;4.20;3.90;;;9.50;99.90;;;;;;649992;221;26792;-83